Language: 


Des rapports , des résumés tant et plus, au choix de chacun....


Données Historiques de Météogheer
Journalier Rapport pour Février 24, 2018 Unitée:  Les deux    Impériale   Métrique
Suivant Jour »
Journalier Hebdomadaire Mensuel Annuel Sur mesure
  Max: Min: Moyenne:
Température: 44.1 °F /  6.7 °C 26.2 °F /  -3.2 °C 33.8 °F /  1 °C
Point de rosée: 21.2 °F /  -6.0 °C 14 °F /  -10.0 °C 17.6 °F /  -8 °C
Humidité: 68% 35% 53%
Vent: 19.5mph /  31.4km/h - 9.4mph /  15.1km/h
Rafales: 24.4mph /  39.3km/h - -
Vent- - ENE
Pression: 30.2 in /  1022.9 hPa 30 in /  1016.8 hPa -
Pluie: 0 in /  0.0 mm    
Historical Graphs
 
 
Données tabulaires pour Février 24, 2018
Heure Température Point de rosée Pression Vent Vent Rafales Humidité Pluie Taux (Horaire) Conditions
00:00 30.6 °F /  -0.8 °C 17.6 °F /  -8.0 °C 30.1in /  1018.2hPa ENE 6.5mph /  10.5km/h 10.1mph /  16.3km/h 63% 0in /  0.0mm
00:05 30.6 °F /  -0.8 °C 17.6 °F /  -8.0 °C 30.1in /  1018.2hPa ENE 5.4mph /  8.7km/h 10.1mph /  16.3km/h 63% 0in /  0.0mm
00:10 30.4 °F /  -0.9 °C 17.6 °F /  -8.0 °C 30.1in /  1018.2hPa ENE 7.4mph /  11.9km/h 8.7mph /  14.0km/h 63% 0in /  0.0mm
00:15 30.4 °F /  -0.9 °C 17.6 °F /  -8.0 °C 30.1in /  1018.2hPa East 5.8mph /  9.3km/h 8.7mph /  14.0km/h 62% 0in /  0.0mm
00:20 30.4 °F /  -0.9 °C 17.6 °F /  -8.0 °C 30.1in /  1018.2hPa NE 6mph /  9.7km/h 8.7mph /  14.0km/h 62% 0in /  0.0mm
00:25 30.4 °F /  -0.9 °C 17.6 °F /  -8.0 °C 30.1in /  1018.2hPa ENE 6mph /  9.7km/h 8.5mph /  13.7km/h 62% 0in /  0.0mm
00:30 30.2 °F /  -1.0 °C 17.6 °F /  -8.0 °C 30.1in /  1018.2hPa ENE 6.3mph /  10.1km/h 8.5mph /  13.7km/h 63% 0in /  0.0mm
00:35 30.2 °F /  -1.0 °C 17.6 °F /  -8.0 °C 30.1in /  1018.2hPa ESE 8.5mph /  13.7km/h 8.7mph /  14.0km/h 63% 0in /  0.0mm
00:40 30.2 °F /  -1.0 °C 17.6 °F /  -8.0 °C 30.1in /  1018.2hPa NE 3.8mph /  6.1km/h 8.7mph /  14.0km/h 63% 0in /  0.0mm
00:45 30.2 °F /  -1.0 °C 17.6 °F /  -8.0 °C 30.1in /  1018.2hPa ENE 8.5mph /  13.7km/h 9.8mph /  15.8km/h 63% 0in /  0.0mm
00:51 30.2 °F /  -1.0 °C 17.6 °F /  -8.0 °C 30.1in /  1018.2hPa ENE 7.4mph /  11.9km/h 9.8mph /  15.8km/h 63% 0in /  0.0mm
00:56 30.2 °F /  -1.0 °C 17.6 °F /  -8.0 °C 30.1in /  1018.2hPa NE 7.4mph /  11.9km/h 9.8mph /  15.8km/h 63% 0in /  0.0mm
01:01 30.2 °F /  -1.0 °C 17.6 °F /  -8.0 °C 30.1in /  1018.2hPa ENE 5.6mph /  9.0km/h 9.8mph /  15.8km/h 63% 0in /  0.0mm
01:06 30 °F /  -1.1 °C 17.6 °F /  -8.0 °C 30.1in /  1018.2hPa East 6.5mph /  10.5km/h 9.4mph /  15.1km/h 63% 0in /  0.0mm
01:11 30 °F /  -1.1 °C 17.6 °F /  -8.0 °C 30.1in /  1018.2hPa ENE 7.4mph /  11.9km/h 9.4mph /  15.1km/h 63% 0in /  0.0mm
01:16 30 °F /  -1.1 °C 17.6 °F /  -8.0 °C 30.1in /  1018.2hPa NE 6.5mph /  10.5km/h 8.5mph /  13.7km/h 63% 0in /  0.0mm
01:21 29.8 °F /  -1.2 °C 17.6 °F /  -8.0 °C 30.1in /  1018.2hPa ENE 7.2mph /  11.6km/h 8.5mph /  13.7km/h 63% 0in /  0.0mm
01:26 29.7 °F /  -1.3 °C 17.6 °F /  -8.0 °C 30.1in /  1018.2hPa NNE 4.3mph /  6.9km/h 8.1mph /  13.0km/h 63% 0in /  0.0mm
01:31 29.7 °F /  -1.3 °C 17.6 °F /  -8.0 °C 30in /  1016.8hPa East 6mph /  9.7km/h 10.7mph /  17.2km/h 63% 0in /  0.0mm
01:36 29.7 °F /  -1.3 °C 17.6 °F /  -8.0 °C 30in /  1016.8hPa ENE 7.4mph /  11.9km/h 12.3mph /  19.8km/h 63% 0in /  0.0mm
01:41 29.7 °F /  -1.3 °C 17.6 °F /  -8.0 °C 30in /  1016.8hPa East 6.5mph /  10.5km/h 12.3mph /  19.8km/h 63% 0in /  0.0mm
01:46 29.7 °F /  -1.3 °C 17.6 °F /  -8.0 °C 30.1in /  1018.2hPa ENE 9.8mph /  15.8km/h 10.3mph /  16.6km/h 63% 0in /  0.0mm
01:51 29.7 °F /  -1.3 °C 17.6 °F /  -8.0 °C 30.1in /  1018.2hPa East 7.4mph /  11.9km/h 9.8mph /  15.8km/h 63% 0in /  0.0mm
01:56 29.5 °F /  -1.4 °C 17.6 °F /  -8.0 °C 30.1in /  1018.2hPa ENE 5.6mph /  9.0km/h 8.5mph /  13.7km/h 63% 0in /  0.0mm
02:01 29.5 °F /  -1.4 °C 17.6 °F /  -8.0 °C 30.1in /  1018.2hPa ENE 7.6mph /  12.2km/h 8.5mph /  13.7km/h 63% 0in /  0.0mm
02:06 29.5 °F /  -1.4 °C 17.6 °F /  -8.0 °C 30.1in /  1018.2hPa East 4.7mph /  7.6km/h 8.7mph /  14.0km/h 64% 0in /  0.0mm
02:11 29.5 °F /  -1.4 °C 17.6 °F /  -8.0 °C 30.1in /  1018.2hPa East 5.6mph /  9.0km/h 8.7mph /  14.0km/h 64% 0in /  0.0mm
02:16 29.5 °F /  -1.4 °C 17.6 °F /  -8.0 °C 30.1in /  1018.2hPa ENE 8.7mph /  14.0km/h 8.7mph /  14.0km/h 64% 0in /  0.0mm
02:21 29.3 °F /  -1.5 °C 17.6 °F /  -8.0 °C 30.1in /  1018.2hPa East 7.4mph /  11.9km/h 8.7mph /  14.0km/h 65% 0in /  0.0mm
02:26 29.3 °F /  -1.5 °C 17.6 °F /  -8.0 °C 30.1in /  1018.2hPa ENE 7.4mph /  11.9km/h 10.7mph /  17.2km/h 65% 0in /  0.0mm
02:31 29.3 °F /  -1.5 °C 17.6 °F /  -8.0 °C 30.1in /  1018.2hPa NE 6.3mph /  10.1km/h 10.7mph /  17.2km/h 65% 0in /  0.0mm
02:36 29.1 °F /  -1.6 °C 17.6 °F /  -8.0 °C 30.1in /  1018.2hPa East 4.9mph /  7.9km/h 8.5mph /  13.7km/h 65% 0in /  0.0mm
02:41 29.1 °F /  -1.6 °C 17.6 °F /  -8.0 °C 30.1in /  1018.2hPa East 8.1mph /  13.0km/h 8.5mph /  13.7km/h 65% 0in /  0.0mm
02:46 28.9 °F /  -1.7 °C 17.6 °F /  -8.0 °C 30.1in /  1018.2hPa NE 7.4mph /  11.9km/h 8.1mph /  13.0km/h 66% 0in /  0.0mm
02:51 28.9 °F /  -1.7 °C 19.4 °F /  -7.0 °C 30.1in /  1018.2hPa ENE 7.2mph /  11.6km/h 8.5mph /  13.7km/h 67% 0in /  0.0mm
02:57 28.8 °F /  -1.8 °C 19.4 °F /  -7.0 °C 30.1in /  1018.2hPa ENE 7.6mph /  12.2km/h 10.5mph /  16.9km/h 67% 0in /  0.0mm
03:02 28.8 °F /  -1.8 °C 19.4 °F /  -7.0 °C 30.1in /  1018.2hPa NE 6mph /  9.7km/h 10.5mph /  16.9km/h 67% 0in /  0.0mm
03:07 28.8 °F /  -1.8 °C 19.4 °F /  -7.0 °C 30.1in /  1018.2hPa ENE 4.9mph /  7.9km/h 10.3mph /  16.6km/h 67% 0in /  0.0mm
03:12 28.6 °F /  -1.9 °C 17.6 °F /  -8.0 °C 30.1in /  1018.2hPa ENE 8.5mph /  13.7km/h 8.7mph /  14.0km/h 67% 0in /  0.0mm
03:17 28.6 °F /  -1.9 °C 17.6 °F /  -8.0 °C 30.1in /  1018.2hPa ENE 6.3mph /  10.1km/h 8.5mph /  13.7km/h 67% 0in /  0.0mm
03:22 28.6 °F /  -1.9 °C 17.6 °F /  -8.0 °C 30.1in /  1018.2hPa ENE 7.6mph /  12.2km/h 10.3mph /  16.6km/h 67% 0in /  0.0mm
03:27 28.6 °F /  -1.9 °C 17.6 °F /  -8.0 °C 30.1in /  1018.2hPa East 9.8mph /  15.8km/h 10.3mph /  16.6km/h 67% 0in /  0.0mm
03:32 28.6 °F /  -1.9 °C 17.6 °F /  -8.0 °C 30.1in /  1018.2hPa NE 5.6mph /  9.0km/h 9.8mph /  15.8km/h 67% 0in /  0.0mm
03:37 28.6 °F /  -1.9 °C 17.6 °F /  -8.0 °C 30.1in /  1018.2hPa East 5.8mph /  9.3km/h 8.7mph /  14.0km/h 67% 0in /  0.0mm
03:42 28.4 °F /  -2.0 °C 17.6 °F /  -8.0 °C 30.1in /  1018.2hPa NNE 4.5mph /  7.2km/h 8.7mph /  14.0km/h 68% 0in /  0.0mm
03:47 28.2 °F /  -2.1 °C 17.6 °F /  -8.0 °C 30.1in /  1018.2hPa NE 7.6mph /  12.2km/h 8.7mph /  14.0km/h 68% 0in /  0.0mm
03:52 28.2 °F /  -2.1 °C 17.6 °F /  -8.0 °C 30.1in /  1018.2hPa East 7.2mph /  11.6km/h 8.7mph /  14.0km/h 68% 0in /  0.0mm
03:57 28.4 °F /  -2.0 °C 17.6 °F /  -8.0 °C 30.1in /  1018.2hPa ENE 7.8mph /  12.6km/h 10.7mph /  17.2km/h 67% 0in /  0.0mm
04:02 28.4 °F /  -2.0 °C 17.6 °F /  -8.0 °C 30.1in /  1018.2hPa ENE 6.5mph /  10.5km/h 10.7mph /  17.2km/h 67% 0in /  0.0mm
04:07 28.2 °F /  -2.1 °C 17.6 °F /  -8.0 °C 30.1in /  1018.2hPa ENE 5.8mph /  9.3km/h 10.1mph /  16.3km/h 67% 0in /  0.0mm
04:12 28.2 °F /  -2.1 °C 17.6 °F /  -8.0 °C 30.1in /  1018.2hPa East 8.1mph /  13.0km/h 8.5mph /  13.7km/h 67% 0in /  0.0mm
04:17 28 °F /  -2.2 °C 17.6 °F /  -8.0 °C 30.1in /  1018.2hPa ENE 9.6mph /  15.4km/h 10.7mph /  17.2km/h 67% 0in /  0.0mm
04:22 28 °F /  -2.2 °C 17.6 °F /  -8.0 °C 30.1in /  1018.2hPa ENE 8.5mph /  13.7km/h 10.7mph /  17.2km/h 67% 0in /  0.0mm
04:27 28 °F /  -2.2 °C 17.6 °F /  -8.0 °C 30.1in /  1018.2hPa NE 7.6mph /  12.2km/h 10.3mph /  16.6km/h 67% 0in /  0.0mm
04:32 28 °F /  -2.2 °C 17.6 °F /  -8.0 °C 30.1in /  1018.2hPa ENE 9.8mph /  15.8km/h 10.3mph /  16.6km/h 66% 0in /  0.0mm
04:37 27.9 °F /  -2.3 °C 15.8 °F /  -9.0 °C 30.1in /  1018.2hPa NE 8.5mph /  13.7km/h 9.8mph /  15.8km/h 66% 0in /  0.0mm
04:42 27.9 °F /  -2.3 °C 15.8 °F /  -9.0 °C 30.1in /  1018.2hPa East 8.1mph /  13.0km/h 8.7mph /  14.0km/h 66% 0in /  0.0mm
04:47 27.9 °F /  -2.3 °C 15.8 °F /  -9.0 °C 30.1in /  1018.2hPa NNE 7.6mph /  12.2km/h 9.6mph /  15.4km/h 66% 0in /  0.0mm
04:52 27.9 °F /  -2.3 °C 15.8 °F /  -9.0 °C 30.1in /  1018.2hPa ENE 4.9mph /  7.9km/h 9.6mph /  15.4km/h 66% 0in /  0.0mm
04:57 27.7 °F /  -2.4 °C 17.6 °F /  -8.0 °C 30.1in /  1018.2hPa East 6.3mph /  10.1km/h 8.7mph /  14.0km/h 67% 0in /  0.0mm
05:02 27.7 °F /  -2.4 °C 15.8 °F /  -9.0 °C 30.1in /  1018.2hPa ENE 9.6mph /  15.4km/h 11mph /  17.7km/h 66% 0in /  0.0mm
05:07 27.7 °F /  -2.4 °C 15.8 °F /  -9.0 °C 30.1in /  1018.2hPa ENE 6.3mph /  10.1km/h 11mph /  17.7km/h 66% 0in /  0.0mm
05:12 27.7 °F /  -2.4 °C 15.8 °F /  -9.0 °C 30.1in /  1018.2hPa East 5.8mph /  9.3km/h 10.1mph /  16.3km/h 66% 0in /  0.0mm
05:17 27.7 °F /  -2.4 °C 15.8 °F /  -9.0 °C 30.1in /  1018.2hPa East 5.8mph /  9.3km/h 11.2mph /  18.0km/h 65% 0in /  0.0mm
05:23 27.5 °F /  -2.5 °C 15.8 °F /  -9.0 °C 30.1in /  1018.2hPa ENE 8.7mph /  14.0km/h 11.2mph /  18.0km/h 65% 0in /  0.0mm
05:28 27.5 °F /  -2.5 °C 15.8 °F /  -9.0 °C 30.1in /  1018.2hPa NE 7.4mph /  11.9km/h 10.7mph /  17.2km/h 65% 0in /  0.0mm
05:33 27.5 °F /  -2.5 °C 15.8 °F /  -9.0 °C 30.1in /  1018.2hPa ENE 7.6mph /  12.2km/h 9.6mph /  15.4km/h 65% 0in /  0.0mm
05:38 27.5 °F /  -2.5 °C 15.8 °F /  -9.0 °C 30.1in /  1018.2hPa NNE 6.5mph /  10.5km/h 10.7mph /  17.2km/h 65% 0in /  0.0mm
05:43 27.5 °F /  -2.5 °C 15.8 °F /  -9.0 °C 30.1in /  1018.2hPa ENE 8.7mph /  14.0km/h 12.3mph /  19.8km/h 64% 0in /  0.0mm
05:48 27.3 °F /  -2.6 °C 15.8 °F /  -9.0 °C 30.1in /  1018.2hPa NE 5.6mph /  9.0km/h 12.3mph /  19.8km/h 64% 0in /  0.0mm
05:53 27.3 °F /  -2.6 °C 15.8 °F /  -9.0 °C 30.1in /  1018.2hPa ENE 6mph /  9.7km/h 10.7mph /  17.2km/h 64% 0in /  0.0mm
05:58 27.3 °F /  -2.6 °C 15.8 °F /  -9.0 °C 30.1in /  1018.2hPa East 6.3mph /  10.1km/h 11mph /  17.7km/h 64% 0in /  0.0mm
06:03 27.1 °F /  -2.7 °C 15.8 °F /  -9.0 °C 30.1in /  1018.2hPa NE 5.4mph /  8.7km/h 12.3mph /  19.8km/h 63% 0in /  0.0mm
06:08 27.1 °F /  -2.7 °C 15.8 °F /  -9.0 °C 30.1in /  1018.2hPa ENE 8.1mph /  13.0km/h 12.3mph /  19.8km/h 63% 0in /  0.0mm
06:13 27.1 °F /  -2.7 °C 15.8 °F /  -9.0 °C 30.1in /  1018.2hPa NE 7.2mph /  11.6km/h 11.9mph /  19.1km/h 63% 0in /  0.0mm
06:18 27 °F /  -2.8 °C 14 °F /  -10.0 °C 30.1in /  1018.2hPa East 8.5mph /  13.7km/h 11.9mph /  19.1km/h 63% 0in /  0.0mm
06:23 27 °F /  -2.8 °C 14 °F /  -10.0 °C 30.1in /  1018.2hPa NE 9.8mph /  15.8km/h 10.5mph /  16.9km/h 63% 0in /  0.0mm
06:28 27 °F /  -2.8 °C 14 °F /  -10.0 °C 30.1in /  1018.2hPa NE 12.5mph /  20.1km/h 12.5mph /  20.1km/h 63% 0in /  0.0mm
06:33 27 °F /  -2.8 °C 14 °F /  -10.0 °C 30.1in /  1018.2hPa NE 8.5mph /  13.7km/h 12.5mph /  20.1km/h 63% 0in /  0.0mm
06:38 27 °F /  -2.8 °C 14 °F /  -10.0 °C 30.1in /  1018.2hPa NE 7.6mph /  12.2km/h 10.7mph /  17.2km/h 63% 0in /  0.0mm
06:43 27 °F /  -2.8 °C 14 °F /  -10.0 °C 30.1in /  1018.2hPa ENE 8.5mph /  13.7km/h 10.7mph /  17.2km/h 63% 0in /  0.0mm
06:48 26.8 °F /  -2.9 °C 14 °F /  -10.0 °C 30.1in /  1018.2hPa ESE 5.4mph /  8.7km/h 8.7mph /  14.0km/h 62% 0in /  0.0mm
06:53 26.8 °F /  -2.9 °C 14 °F /  -10.0 °C 30.1in /  1018.2hPa ENE 6mph /  9.7km/h 9.8mph /  15.8km/h 62% 0in /  0.0mm
06:58 26.8 °F /  -2.9 °C 14 °F /  -10.0 °C 30.1in /  1018.2hPa ENE 6.9mph /  11.1km/h 9.8mph /  15.8km/h 62% 0in /  0.0mm
07:03 26.6 °F /  -3.0 °C 14 °F /  -10.0 °C 30.1in /  1018.2hPa NE 2.7mph /  4.3km/h 9.2mph /  14.8km/h 63% 0in /  0.0mm
07:08 26.6 °F /  -3.0 °C 14 °F /  -10.0 °C 30.1in /  1018.2hPa East 3.8mph /  6.1km/h 9.8mph /  15.8km/h 63% 0in /  0.0mm
07:13 26.6 °F /  -3.0 °C 14 °F /  -10.0 °C 30.1in /  1018.2hPa NE 3.8mph /  6.1km/h 9.8mph /  15.8km/h 63% 0in /  0.0mm
07:18 26.6 °F /  -3.0 °C 14 °F /  -10.0 °C 30.1in /  1018.2hPa NE 6mph /  9.7km/h 8.5mph /  13.7km/h 63% 0in /  0.0mm
07:23 26.4 °F /  -3.1 °C 14 °F /  -10.0 °C 30.1in /  1018.2hPa East 7.6mph /  12.2km/h 8.1mph /  13.0km/h 62% 0in /  0.0mm
07:28 26.4 °F /  -3.1 °C 14 °F /  -10.0 °C 30.1in /  1018.2hPa ENE 9.2mph /  14.8km/h 9.2mph /  14.8km/h 63% 0in /  0.0mm
07:33 26.4 °F /  -3.1 °C 14 °F /  -10.0 °C 30.1in /  1018.8hPa East 5.6mph /  9.0km/h 9.2mph /  14.8km/h 62% 0in /  0.0mm
07:39 26.4 °F /  -3.1 °C 14 °F /  -10.0 °C 30.1in /  1018.8hPa ENE 7.6mph /  12.2km/h 10.5mph /  16.9km/h 62% 0in /  0.0mm
07:44 26.4 °F /  -3.1 °C 14 °F /  -10.0 °C 30.1in /  1018.8hPa ENE 5.4mph /  8.7km/h 10.5mph /  16.9km/h 62% 0in /  0.0mm
07:49 26.4 °F /  -3.1 °C 14 °F /  -10.0 °C 30.1in /  1018.8hPa East 5.6mph /  9.0km/h 10.3mph /  16.6km/h 62% 0in /  0.0mm
07:54 26.4 °F /  -3.1 °C 14 °F /  -10.0 °C 30.1in /  1018.8hPa East 5.8mph /  9.3km/h 10.3mph /  16.6km/h 62% 0in /  0.0mm
07:59 26.2 °F /  -3.2 °C 14 °F /  -10.0 °C 30.1in /  1018.8hPa ENE 7.6mph /  12.2km/h 11.2mph /  18.0km/h 62% 0in /  0.0mm
08:04 26.4 °F /  -3.1 °C 14 °F /  -10.0 °C 30.1in /  1018.8hPa East 6.5mph /  10.5km/h 11.2mph /  18.0km/h 62% 0in /  0.0mm
08:09 26.6 °F /  -3.0 °C 14 °F /  -10.0 °C 30.1in /  1018.8hPa East 10.5mph /  16.9km/h 10.7mph /  17.2km/h 61% 0in /  0.0mm
08:14 26.8 °F /  -2.9 °C 14 °F /  -10.0 °C 30.1in /  1018.8hPa East 8.7mph /  14.0km/h 10.7mph /  17.2km/h 60% 0in /  0.0mm
08:19 27 °F /  -2.8 °C 14 °F /  -10.0 °C 30.1in /  1018.8hPa ENE 6mph /  9.7km/h 10.3mph /  16.6km/h 60% 0in /  0.0mm
08:24 27 °F /  -2.8 °C 14 °F /  -10.0 °C 30.1in /  1018.8hPa NE 7.6mph /  12.2km/h 10.3mph /  16.6km/h 60% 0in /  0.0mm
08:29 27.3 °F /  -2.6 °C 14 °F /  -10.0 °C 30.1in /  1018.8hPa ENE 7.4mph /  11.9km/h 10.7mph /  17.2km/h 59% 0in /  0.0mm
08:34 27.5 °F /  -2.5 °C 14 °F /  -10.0 °C 30.1in /  1018.8hPa ENE 6.3mph /  10.1km/h 10.7mph /  17.2km/h 59% 0in /  0.0mm
08:39 27.9 °F /  -2.3 °C 14 °F /  -10.0 °C 30.1in /  1018.8hPa ENE 7.6mph /  12.2km/h 10.1mph /  16.3km/h 59% 0in /  0.0mm
08:44 28 °F /  -2.2 °C 14 °F /  -10.0 °C 30.1in /  1018.8hPa ENE 9.8mph /  15.8km/h 11.9mph /  19.1km/h 58% 0in /  0.0mm
08:49 28.2 °F /  -2.1 °C 14 °F /  -10.0 °C 30.1in /  1018.8hPa ENE 8.5mph /  13.7km/h 14.8mph /  23.8km/h 57% 0in /  0.0mm
08:54 28.6 °F /  -1.9 °C 14 °F /  -10.0 °C 30.1in /  1018.8hPa ENE 8.5mph /  13.7km/h 14.8mph /  23.8km/h 56% 0in /  0.0mm
08:59 28.8 °F /  -1.8 °C 14 °F /  -10.0 °C 30.1in /  1019.9hPa ENE 8.5mph /  13.7km/h 13.4mph /  21.6km/h 55% 0in /  0.0mm
09:04 28.9 °F /  -1.7 °C 14 °F /  -10.0 °C 30.1in /  1019.9hPa ENE 14.8mph /  23.8km/h 14.8mph /  23.8km/h 54% 0in /  0.0mm
09:09 29.1 °F /  -1.6 °C 14 °F /  -10.0 °C 30.1in /  1019.9hPa ENE 4.3mph /  6.9km/h 14.8mph /  23.8km/h 54% 0in /  0.0mm
09:14 29.5 °F /  -1.4 °C 14 °F /  -10.0 °C 30.1in /  1019.9hPa ENE 8.1mph /  13.0km/h 14.8mph /  23.8km/h 54% 0in /  0.0mm
09:19 29.5 °F /  -1.4 °C 14 °F /  -10.0 °C 30.1in /  1019.9hPa ENE 7.8mph /  12.6km/h 13.2mph /  21.2km/h 53% 0in /  0.0mm
09:25 29.8 °F /  -1.2 °C 14 °F /  -10.0 °C 30.1in /  1019.9hPa ENE 10.5mph /  16.9km/h 13.2mph /  21.2km/h 53% 0in /  0.0mm
09:30 30 °F /  -1.1 °C 14 °F /  -10.0 °C 30.1in /  1019.9hPa East 7.4mph /  11.9km/h 10.7mph /  17.2km/h 53% 0in /  0.0mm
09:35 30.2 °F /  -1.0 °C 14 °F /  -10.0 °C 30.1in /  1019.9hPa NE 9.4mph /  15.1km/h 12.8mph /  20.6km/h 52% 0in /  0.0mm
09:40 30.4 °F /  -0.9 °C 14 °F /  -10.0 °C 30.1in /  1019.9hPa NE 8.5mph /  13.7km/h 15.2mph /  24.5km/h 51% 0in /  0.0mm
09:45 30.4 °F /  -0.9 °C 14 °F /  -10.0 °C 30.1in /  1019.9hPa ENE 11.4mph /  18.3km/h 15.4mph /  24.8km/h 51% 0in /  0.0mm
09:50 30.7 °F /  -0.7 °C 14 °F /  -10.0 °C 30.1in /  1019.9hPa ENE 7.8mph /  12.6km/h 15.4mph /  24.8km/h 51% 0in /  0.0mm
09:55 30.7 °F /  -0.7 °C 14 °F /  -10.0 °C 30.1in /  1019.9hPa ENE 10.5mph /  16.9km/h 15.2mph /  24.5km/h 51% 0in /  0.0mm
10:00 31.1 °F /  -0.5 °C 14 °F /  -10.0 °C 30.2in /  1020.9hPa East 14.5mph /  23.3km/h 17.7mph /  28.5km/h 50% 0in /  0.0mm
10:05 31.3 °F /  -0.4 °C 14 °F /  -10.0 °C 30.2in /  1020.9hPa East 10.3mph /  16.6km/h 17.7mph /  28.5km/h 50% 0in /  0.0mm
10:07 31.5 °F /  -0.3 °C 14 °F /  -10.0 °C 30.2in /  1020.9hPa ENE 6.5mph /  10.5km/h 16.6mph /  26.7km/h 51% 0in /  0.0mm
10:12 31.6 °F /  -0.2 °C 14 °F /  -10.0 °C 30.2in /  1020.9hPa ENE 7.6mph /  12.2km/h 15.4mph /  24.8km/h 50% 0in /  0.0mm
10:17 31.6 °F /  -0.2 °C 14 °F /  -10.0 °C 30.2in /  1020.9hPa East 10.7mph /  17.2km/h 15.4mph /  24.8km/h 49% 0in /  0.0mm
10:22 32.2 °F /  0.1 °C 15.8 °F /  -9.0 °C 30.2in /  1020.9hPa East 9.6mph /  15.4km/h 12.8mph /  20.6km/h 49% 0in /  0.0mm
10:27 32.2 °F /  0.1 °C 15.8 °F /  -9.0 °C 30.2in /  1020.9hPa East 12.3mph /  19.8km/h 14.1mph /  22.7km/h 48% 0in /  0.0mm
10:32 32.5 °F /  0.3 °C 15.8 °F /  -9.0 °C 30.1in /  1019.9hPa NE 10.1mph /  16.3km/h 14.5mph /  23.3km/h 48% 0in /  0.0mm
10:37 32.7 °F /  0.4 °C 15.8 °F /  -9.0 °C 30.1in /  1019.9hPa ENE 10.3mph /  16.6km/h 17.7mph /  28.5km/h 47% 0in /  0.0mm
10:42 33.1 °F /  0.6 °C 15.8 °F /  -9.0 °C 30.1in /  1019.9hPa ENE 13mph /  20.9km/h 17.7mph /  28.5km/h 47% 0in /  0.0mm
10:47 33.3 °F /  0.7 °C 15.8 °F /  -9.0 °C 30.1in /  1019.9hPa East 7.4mph /  11.9km/h 15.7mph /  25.3km/h 47% 0in /  0.0mm
10:52 33.6 °F /  0.9 °C 15.8 °F /  -9.0 °C 30.1in /  1019.9hPa ENE 8.7mph /  14.0km/h 17.4mph /  28.0km/h 46% 0in /  0.0mm
10:57 33.8 °F /  1.0 °C 15.8 °F /  -9.0 °C 30.1in /  1019.9hPa East 11mph /  17.7km/h 17.4mph /  28.0km/h 45% 0in /  0.0mm
11:02 34 °F /  1.1 °C 15.8 °F /  -9.0 °C 30.1in /  1019.9hPa ENE 10.1mph /  16.3km/h 15.7mph /  25.3km/h 45% 0in /  0.0mm
11:07 34.3 °F /  1.3 °C 15.8 °F /  -9.0 °C 30.1in /  1019.9hPa ENE 9.8mph /  15.8km/h 14.8mph /  23.8km/h 44% 0in /  0.0mm
11:13 34.9 °F /  1.6 °C 15.8 °F /  -9.0 °C 30.1in /  1019.9hPa ENE 12.8mph /  20.6km/h 15.2mph /  24.5km/h 44% 0in /  0.0mm
11:18 35.1 °F /  1.7 °C 15.8 °F /  -9.0 °C 30.1in /  1019.9hPa East 11.2mph /  18.0km/h 15.2mph /  24.5km/h 44% 0in /  0.0mm
11:23 35.2 °F /  1.8 °C 14 °F /  -10.0 °C 30.1in /  1019.9hPa ENE 10.1mph /  16.3km/h 14.8mph /  23.8km/h 43% 0in /  0.0mm
11:28 35.8 °F /  2.1 °C 15.8 °F /  -9.0 °C 30.1in /  1019.9hPa East 8.7mph /  14.0km/h 14.8mph /  23.8km/h 43% 0in /  0.0mm
11:33 36 °F /  2.2 °C 15.8 °F /  -9.0 °C 30.1in /  1019.9hPa NE 10.7mph /  17.2km/h 14.1mph /  22.7km/h 43% 0in /  0.0mm
11:38 36.3 °F /  2.4 °C 15.8 °F /  -9.0 °C 30.1in /  1019.9hPa ENE 11mph /  17.7km/h 13.6mph /  21.9km/h 42% 0in /  0.0mm
11:43 36.3 °F /  2.4 °C 15.8 °F /  -9.0 °C 30.1in /  1019.9hPa NE 10.3mph /  16.6km/h 16.1mph /  25.9km/h 42% 0in /  0.0mm
11:48 36.7 °F /  2.6 °C 15.8 °F /  -9.0 °C 30.1in /  1019.9hPa East 8.5mph /  13.7km/h 16.1mph /  25.9km/h 42% 0in /  0.0mm
11:53 36.9 °F /  2.7 °C 15.8 °F /  -9.0 °C 30.1in /  1019.9hPa ENE 11mph /  17.7km/h 17.2mph /  27.7km/h 41% 0in /  0.0mm
11:58 37 °F /  2.8 °C 15.8 °F /  -9.0 °C 30.1in /  1019.9hPa ENE 7.6mph /  12.2km/h 17.2mph /  27.7km/h 41% 0in /  0.0mm
12:03 37.4 °F /  3.0 °C 15.8 °F /  -9.0 °C 30.1in /  1018.8hPa SSE 11mph /  17.7km/h 14.8mph /  23.8km/h 41% 0in /  0.0mm
12:08 37.6 °F /  3.1 °C 15.8 °F /  -9.0 °C 30.1in /  1018.8hPa East 10.3mph /  16.6km/h 14.8mph /  23.8km/h 41% 0in /  0.0mm
12:13 37.9 °F /  3.3 °C 15.8 °F /  -9.0 °C 30.1in /  1018.8hPa ENE 10.1mph /  16.3km/h 17.2mph /  27.7km/h 41% 0in /  0.0mm
12:18 38.3 °F /  3.5 °C 17.6 °F /  -8.0 °C 30.1in /  1019.9hPa East 13.4mph /  21.6km/h 17.2mph /  27.7km/h 41% 0in /  0.0mm
12:23 38.7 °F /  3.7 °C 17.6 °F /  -8.0 °C 30.1in /  1019.9hPa ESE 5.6mph /  9.0km/h 13.4mph /  21.6km/h 41% 0in /  0.0mm
12:28 38.7 °F /  3.7 °C 15.8 °F /  -9.0 °C 30.1in /  1019.9hPa East 10.3mph /  16.6km/h 15.9mph /  25.6km/h 40% 0in /  0.0mm
12:33 38.8 °F /  3.8 °C 15.8 °F /  -9.0 °C 30.1in /  1019.9hPa East 9.6mph /  15.4km/h 15.9mph /  25.6km/h 40% 0in /  0.0mm
12:38 39 °F /  3.9 °C 17.6 °F /  -8.0 °C 30.1in /  1019.9hPa ENE 14.5mph /  23.3km/h 15.2mph /  24.5km/h 40% 0in /  0.0mm
12:43 39.2 °F /  4.0 °C 15.8 °F /  -9.0 °C 30.1in /  1019.9hPa ENE 15.4mph /  24.8km/h 15.4mph /  24.8km/h 39% 0in /  0.0mm
12:48 39.6 °F /  4.2 °C 17.6 °F /  -8.0 °C 30.1in /  1019.9hPa East 12.3mph /  19.8km/h 15.4mph /  24.8km/h 40% 0in /  0.0mm
12:53 39.9 °F /  4.4 °C 17.6 °F /  -8.0 °C 30.1in /  1019.9hPa NE 10.7mph /  17.2km/h 15.4mph /  24.8km/h 40% 0in /  0.0mm
12:58 39.9 °F /  4.4 °C 17.6 °F /  -8.0 °C 30.1in /  1019.9hPa ESE 9.2mph /  14.8km/h 13.9mph /  22.4km/h 39% 0in /  0.0mm
13:03 39.9 °F /  4.4 °C 17.6 °F /  -8.0 °C 30.1in /  1018.8hPa East 6.5mph /  10.5km/h 16.8mph /  27.0km/h 39% 0in /  0.0mm
13:09 40.1 °F /  4.5 °C 17.6 °F /  -8.0 °C 30.1in /  1018.8hPa ENE 13mph /  20.9km/h 16.8mph /  27.0km/h 39% 0in /  0.0mm
13:14 40.5 °F /  4.7 °C 17.6 °F /  -8.0 °C 30.1in /  1018.8hPa East 10.7mph /  17.2km/h 16.1mph /  25.9km/h 39% 0in /  0.0mm
13:19 40.5 °F /  4.7 °C 17.6 °F /  -8.0 °C 30.1in /  1018.8hPa East 10.5mph /  16.9km/h 16.8mph /  27.0km/h 39% 0in /  0.0mm
13:24 40.5 °F /  4.7 °C 17.6 °F /  -8.0 °C 30.1in /  1018.8hPa ENE 11mph /  17.7km/h 16.8mph /  27.0km/h 39% 0in /  0.0mm
13:29 40.6 °F /  4.8 °C 17.6 °F /  -8.0 °C 30.1in /  1018.8hPa East 15.9mph /  25.6km/h 16.8mph /  27.0km/h 39% 0in /  0.0mm
13:34 41 °F /  5.0 °C 19.4 °F /  -7.0 °C 30.1in /  1018.8hPa NE 10.7mph /  17.2km/h 16.8mph /  27.0km/h 39% 0in /  0.0mm
13:39 41.2 °F /  5.1 °C 17.6 °F /  -8.0 °C 30.1in /  1018.8hPa ENE 12.5mph /  20.1km/h 15.4mph /  24.8km/h 38% 0in /  0.0mm
13:44 41.5 °F /  5.3 °C 17.6 °F /  -8.0 °C 30.1in /  1018.8hPa NE 9.6mph /  15.4km/h 15.7mph /  25.3km/h 38% 0in /  0.0mm
13:49 41.5 °F /  5.3 °C 17.6 °F /  -8.0 °C 30.1in /  1018.8hPa East 12.1mph /  19.5km/h 17.4mph /  28.0km/h 38% 0in /  0.0mm
13:54 41.7 °F /  5.4 °C 17.6 °F /  -8.0 °C 30.1in /  1018.8hPa East 8.1mph /  13.0km/h 17.4mph /  28.0km/h 38% 0in /  0.0mm
13:59 42.3 °F /  5.7 °C 19.4 °F /  -7.0 °C 30.1in /  1018.8hPa East 10.3mph /  16.6km/h 17mph /  27.4km/h 39% 0in /  0.0mm
14:04 42.3 °F /  5.7 °C 19.4 °F /  -7.0 °C 30.1in /  1018.8hPa ENE 8.5mph /  13.7km/h 15.4mph /  24.8km/h 38% 0in /  0.0mm
14:09 42.3 °F /  5.7 °C 19.4 °F /  -7.0 °C 30.1in /  1018.8hPa NE 10.3mph /  16.6km/h 17.7mph /  28.5km/h 38% 0in /  0.0mm
14:14 42.4 °F /  5.8 °C 19.4 °F /  -7.0 °C 30.1in /  1018.8hPa ESE 8.5mph /  13.7km/h 17.7mph /  28.5km/h 38% 0in /  0.0mm
14:19 42.4 °F /  5.8 °C 19.4 °F /  -7.0 °C 30.1in /  1018.8hPa NE 9.8mph /  15.8km/h 19.5mph /  31.4km/h 38% 0in /  0.0mm
14:24 42.8 °F /  6.0 °C 19.4 °F /  -7.0 °C 30.1in /  1018.8hPa East 13mph /  20.9km/h 19.5mph /  31.4km/h 37% 0in /  0.0mm
14:29 43 °F /  6.1 °C 19.4 °F /  -7.0 °C 30.1in /  1018.8hPa East 6mph /  9.7km/h 16.3mph /  26.2km/h 38% 0in /  0.0mm
14:35 42.8 °F /  6.0 °C 17.6 °F /  -8.0 °C 30.1in /  1018.8hPa ENE 14.8mph /  23.8km/h 17.7mph /  28.5km/h 35% 0in /  0.0mm
14:40 43 °F /  6.1 °C 17.6 °F /  -8.0 °C 30.1in /  1018.8hPa NE 12.8mph /  20.6km/h 17.7mph /  28.5km/h 36% 0in /  0.0mm
14:45 43 °F /  6.1 °C 17.6 °F /  -8.0 °C 30.1in /  1018.8hPa ENE 11mph /  17.7km/h 17.4mph /  28.0km/h 36% 0in /  0.0mm
14:50 43 °F /  6.1 °C 17.6 °F /  -8.0 °C 30.1in /  1018.8hPa NE 10.1mph /  16.3km/h 16.8mph /  27.0km/h 35% 0in /  0.0mm
14:55 43.2 °F /  6.2 °C 19.4 °F /  -7.0 °C 30.1in /  1018.8hPa NE 10.5mph /  16.9km/h 15.2mph /  24.5km/h 36% 0in /  0.0mm
15:00 43.3 °F /  6.3 °C 19.4 °F /  -7.0 °C 30.1in /  1018.8hPa NE 11.4mph /  18.3km/h 21.9mph /  35.2km/h 36% 0in /  0.0mm
15:05 43.3 °F /  6.3 °C 19.4 °F /  -7.0 °C 30.1in /  1018.8hPa ENE 7.6mph /  12.2km/h 21.9mph /  35.2km/h 36% 0in /  0.0mm
15:10 43.7 °F /  6.5 °C 19.4 °F /  -7.0 °C 30.1in /  1018.8hPa East 12.8mph /  20.6km/h 15.2mph /  24.5km/h 38% 0in /  0.0mm
15:14 43.5 °F /  6.4 °C 19.4 °F /  -7.0 °C 30.1in /  1018.8hPa East 11.4mph /  18.3km/h 16.8mph /  27.0km/h 36% 0in /  0.0mm
15:19 43.3 °F /  6.3 °C 17.6 °F /  -8.0 °C 30.1in /  1018.8hPa ENE 13mph /  20.9km/h 16.8mph /  27.0km/h 35% 0in /  0.0mm
15:25 43.3 °F /  6.3 °C 17.6 °F /  -8.0 °C 30.1in /  1018.8hPa NE 7.8mph /  12.6km/h 17.4mph /  28.0km/h 35% 0in /  0.0mm
15:30 43.5 °F /  6.4 °C 17.6 °F /  -8.0 °C 30.1in /  1018.8hPa East 11mph /  17.7km/h 17.9mph /  28.8km/h 35% 0in /  0.0mm
15:35 43.5 °F /  6.4 °C 19.4 °F /  -7.0 °C 30.1in /  1018.8hPa NE 11.4mph /  18.3km/h 17.9mph /  28.8km/h 36% 0in /  0.0mm
15:40 43.5 °F /  6.4 °C 17.6 °F /  -8.0 °C 30.1in /  1018.8hPa ENE 12.3mph /  19.8km/h 20.6mph /  33.1km/h 35% 0in /  0.0mm
15:45 43.7 °F /  6.5 °C 19.4 °F /  -7.0 °C 30.1in /  1018.8hPa NE 15.4mph /  24.8km/h 20.6mph /  33.1km/h 37% 0in /  0.0mm
15:50 43.7 °F /  6.5 °C 19.4 °F /  -7.0 °C 30.1in /  1018.8hPa ENE 12.5mph /  20.1km/h 16.6mph /  26.7km/h 36% 0in /  0.0mm
15:55 43.7 °F /  6.5 °C 19.4 °F /  -7.0 °C 30.1in /  1018.8hPa East 10.5mph /  16.9km/h 16.6mph /  26.7km/h 37% 0in /  0.0mm
16:00 43.9 °F /  6.6 °C 19.4 °F /  -7.0 °C 30.1in /  1018.8hPa East 9.4mph /  15.1km/h 15.4mph /  24.8km/h 38% 0in /  0.0mm
16:05 44.1 °F /  6.7 °C 19.4 °F /  -7.0 °C 30.1in /  1018.8hPa East 8.7mph /  14.0km/h 16.8mph /  27.0km/h 38% 0in /  0.0mm
16:10 43.9 °F /  6.6 °C 19.4 °F /  -7.0 °C 30.1in /  1018.8hPa NNE 9.8mph /  15.8km/h 16.8mph /  27.0km/h 38% 0in /  0.0mm
16:15 43.7 °F /  6.5 °C 19.4 °F /  -7.0 °C 30.1in /  1018.8hPa East 12.3mph /  19.8km/h 13.2mph /  21.2km/h 37% 0in /  0.0mm
16:20 43.7 °F /  6.5 °C 19.4 °F /  -7.0 °C 30.1in /  1018.8hPa East 9.8mph /  15.8km/h 18.1mph /  29.1km/h 38% 0in /  0.0mm
16:25 43.7 °F /  6.5 °C 19.4 °F /  -7.0 °C 30.1in /  1018.8hPa ENE 13.2mph /  21.2km/h 18.1mph /  29.1km/h 38% 0in /  0.0mm
16:30 43.7 °F /  6.5 °C 19.4 °F /  -7.0 °C 30.1in /  1018.8hPa NE 10.1mph /  16.3km/h 15.9mph /  25.6km/h 38% 0in /  0.0mm
16:35 43.5 °F /  6.4 °C 19.4 °F /  -7.0 °C 30.1in /  1018.8hPa NE 12.1mph /  19.5km/h 15.4mph /  24.8km/h 38% 0in /  0.0mm
16:40 43.3 °F /  6.3 °C 19.4 °F /  -7.0 °C 30.1in /  1018.8hPa ENE 7.8mph /  12.6km/h 15.4mph /  24.8km/h 38% 0in /  0.0mm
16:45 43.2 °F /  6.2 °C 19.4 °F /  -7.0 °C 30.1in /  1018.8hPa NE 12.5mph /  20.1km/h 15.2mph /  24.5km/h 38% 0in /  0.0mm
16:50 43 °F /  6.1 °C 19.4 °F /  -7.0 °C 30.1in /  1018.8hPa ENE 8.7mph /  14.0km/h 17.4mph /  28.0km/h 38% 0in /  0.0mm
16:55 43 °F /  6.1 °C 19.4 °F /  -7.0 °C 30.1in /  1018.8hPa NE 19.5mph /  31.4km/h 19.5mph /  31.4km/h 38% 0in /  0.0mm
17:00 42.8 °F /  6.0 °C 19.4 °F /  -7.0 °C 30.1in /  1018.8hPa ENE 10.5mph /  16.9km/h 19.5mph /  31.4km/h 38% 0in /  0.0mm
17:05 42.8 °F /  6.0 °C 19.4 °F /  -7.0 °C 30.1in /  1018.8hPa NE 8.7mph /  14.0km/h 19.5mph /  31.4km/h 38% 0in /  0.0mm
17:10 42.4 °F /  5.8 °C 19.4 °F /  -7.0 °C 30.1in /  1018.8hPa East 12.8mph /  20.6km/h 15.2mph /  24.5km/h 39% 0in /  0.0mm
17:15 42.4 °F /  5.8 °C 19.4 °F /  -7.0 °C 30.1in /  1018.8hPa ENE 11mph /  17.7km/h 13.4mph /  21.6km/h 39% 0in /  0.0mm
17:21 42.3 °F /  5.7 °C 19.4 °F /  -7.0 °C 30.1in /  1018.8hPa East 10.7mph /  17.2km/h 17.4mph /  28.0km/h 39% 0in /  0.0mm
17:26 41.9 °F /  5.5 °C 19.4 °F /  -7.0 °C 30.1in /  1018.8hPa ENE 7.2mph /  11.6km/h 17.4mph /  28.0km/h 39% 0in /  0.0mm
17:31 41.7 °F /  5.4 °C 19.4 °F /  -7.0 °C 30.1in /  1018.8hPa NE 12.5mph /  20.1km/h 14.5mph /  23.3km/h 39% 0in /  0.0mm
17:36 41.5 °F /  5.3 °C 19.4 °F /  -7.0 °C 30.1in /  1018.8hPa ENE 8.5mph /  13.7km/h 17mph /  27.4km/h 39% 0in /  0.0mm
17:41 41.2 °F /  5.1 °C 19.4 °F /  -7.0 °C 30.1in /  1018.8hPa East 9.2mph /  14.8km/h 17mph /  27.4km/h 39% 0in /  0.0mm
17:46 41 °F /  5.0 °C 19.4 °F /  -7.0 °C 30.1in /  1018.8hPa East 15.4mph /  24.8km/h 17.9mph /  28.8km/h 39% 0in /  0.0mm
17:51 40.6 °F /  4.8 °C 17.6 °F /  -8.0 °C 30.1in /  1018.8hPa ENE 9.6mph /  15.4km/h 17.9mph /  28.8km/h 40% 0in /  0.0mm
17:56 40.3 °F /  4.6 °C 17.6 °F /  -8.0 °C 30.1in /  1018.8hPa East 8.5mph /  13.7km/h 15.2mph /  24.5km/h 40% 0in /  0.0mm
18:01 39.7 °F /  4.3 °C 17.6 °F /  -8.0 °C 30.1in /  1019.9hPa ENE 12.3mph /  19.8km/h 14.5mph /  23.3km/h 40% 0in /  0.0mm
18:06 39.7 °F /  4.3 °C 17.6 °F /  -8.0 °C 30.1in /  1019.9hPa East 11mph /  17.7km/h 16.1mph /  25.9km/h 40% 0in /  0.0mm
18:11 39.4 °F /  4.1 °C 17.6 °F /  -8.0 °C 30.1in /  1019.9hPa ENE 7.6mph /  12.2km/h 16.1mph /  25.9km/h 41% 0in /  0.0mm
18:16 39 °F /  3.9 °C 17.6 °F /  -8.0 °C 30.1in /  1019.9hPa ENE 8.5mph /  13.7km/h 13mph /  20.9km/h 41% 0in /  0.0mm
18:21 38.8 °F /  3.8 °C 17.6 °F /  -8.0 °C 30.1in /  1019.9hPa East 12.5mph /  20.1km/h 12.5mph /  20.1km/h 41% 0in /  0.0mm
18:26 38.7 °F /  3.7 °C 17.6 °F /  -8.0 °C 30.1in /  1019.9hPa ENE 13mph /  20.9km/h 17.7mph /  28.5km/h 41% 0in /  0.0mm
18:31 38.7 °F /  3.7 °C 17.6 °F /  -8.0 °C 30.1in /  1019.9hPa ENE 9.8mph /  15.8km/h 17.7mph /  28.5km/h 42% 0in /  0.0mm
18:36 38.5 °F /  3.6 °C 17.6 °F /  -8.0 °C 30.1in /  1019.9hPa ENE 9.8mph /  15.8km/h 19.7mph /  31.7km/h 42% 0in /  0.0mm
18:42 38.5 °F /  3.6 °C 17.6 °F /  -8.0 °C 30.1in /  1019.9hPa ENE 9.6mph /  15.4km/h 20.6mph /  33.1km/h 42% 0in /  0.0mm
18:47 38.1 °F /  3.4 °C 17.6 °F /  -8.0 °C 30.2in /  1020.9hPa ENE 7.6mph /  12.2km/h 22.4mph /  36.0km/h 42% 0in /  0.0mm
18:52 37.9 °F /  3.3 °C 17.6 °F /  -8.0 °C 30.2in /  1020.9hPa ENE 8.1mph /  13.0km/h 22.4mph /  36.0km/h 43% 0in /  0.0mm
18:57 37.8 °F /  3.2 °C 17.6 °F /  -8.0 °C 30.2in /  1020.9hPa East 12.3mph /  19.8km/h 13mph /  20.9km/h 43% 0in /  0.0mm
19:02 37.8 °F /  3.2 °C 19.4 °F /  -7.0 °C 30.2in /  1020.9hPa NE 10.7mph /  17.2km/h 17.7mph /  28.5km/h 44% 0in /  0.0mm
19:07 37.6 °F /  3.1 °C 19.4 °F /  -7.0 °C 30.2in /  1020.9hPa NE 8.1mph /  13.0km/h 17.7mph /  28.5km/h 45% 0in /  0.0mm
19:12 37.4 °F /  3.0 °C 19.4 °F /  -7.0 °C 30.2in /  1020.9hPa ENE 17.4mph /  28.0km/h 19.2mph /  30.9km/h 45% 0in /  0.0mm
19:17 37.4 °F /  3.0 °C 19.4 °F /  -7.0 °C 30.2in /  1020.9hPa ENE 13mph /  20.9km/h 19.2mph /  30.9km/h 46% 0in /  0.0mm
19:22 37 °F /  2.8 °C 19.4 °F /  -7.0 °C 30.2in /  1020.9hPa NE 12.8mph /  20.6km/h 17.4mph /  28.0km/h 47% 0in /  0.0mm
19:27 36.9 °F /  2.7 °C 19.4 °F /  -7.0 °C 30.2in /  1020.9hPa East 8.5mph /  13.7km/h 15.4mph /  24.8km/h 48% 0in /  0.0mm
19:32 36.9 °F /  2.7 °C 19.4 °F /  -7.0 °C 30.2in /  1020.9hPa ENE 6mph /  9.7km/h 14.8mph /  23.8km/h 49% 0in /  0.0mm
19:37 36.7 °F /  2.6 °C 21.2 °F /  -6.0 °C 30.2in /  1020.9hPa NE 8.1mph /  13.0km/h 17.9mph /  28.8km/h 50% 0in /  0.0mm
19:42 36.3 °F /  2.4 °C 19.4 °F /  -7.0 °C 30.2in /  1020.9hPa ENE 10.1mph /  16.3km/h 17.9mph /  28.8km/h 50% 0in /  0.0mm
19:47 36.3 °F /  2.4 °C 21.2 °F /  -6.0 °C 30.2in /  1020.9hPa ENE 8.7mph /  14.0km/h 18.1mph /  29.1km/h 51% 0in /  0.0mm
19:52 36 °F /  2.2 °C 21.2 °F /  -6.0 °C 30.2in /  1020.9hPa NE 13.2mph /  21.2km/h 18.1mph /  29.1km/h 52% 0in /  0.0mm
19:57 35.8 °F /  2.1 °C 21.2 °F /  -6.0 °C 30.2in /  1020.9hPa NE 10.1mph /  16.3km/h 16.3mph /  26.2km/h 52% 0in /  0.0mm
20:02 35.6 °F /  2.0 °C 21.2 °F /  -6.0 °C 30.1in /  1019.9hPa ENE 15.9mph /  25.6km/h 15.9mph /  25.6km/h 53% 0in /  0.0mm
20:07 35.4 °F /  1.9 °C 21.2 °F /  -6.0 °C 30.1in /  1019.9hPa NE 15.4mph /  24.8km/h 17.7mph /  28.5km/h 54% 0in /  0.0mm
20:12 35.2 °F /  1.8 °C 21.2 °F /  -6.0 °C 30.1in /  1019.9hPa ENE 11mph /  17.7km/h 17.7mph /  28.5km/h 54% 0in /  0.0mm
20:17 35.1 °F /  1.7 °C 21.2 °F /  -6.0 °C 30.2in /  1020.9hPa NNE 7.6mph /  12.2km/h 17mph /  27.4km/h 55% 0in /  0.0mm
20:22 35.1 °F /  1.7 °C 21.2 °F /  -6.0 °C 30.2in /  1020.9hPa NE 15.9mph /  25.6km/h 15.9mph /  25.6km/h 55% 0in /  0.0mm
20:27 34.9 °F /  1.6 °C 21.2 °F /  -6.0 °C 30.2in /  1020.9hPa ENE 12.1mph /  19.5km/h 17.4mph /  28.0km/h 55% 0in /  0.0mm
20:32 34.9 °F /  1.6 °C 21.2 °F /  -6.0 °C 30.2in /  1020.9hPa ENE 9.8mph /  15.8km/h 17.7mph /  28.5km/h 56% 0in /  0.0mm
20:38 34.7 °F /  1.5 °C 21.2 °F /  -6.0 °C 30.2in /  1020.9hPa ENE 15.4mph /  24.8km/h 17.7mph /  28.5km/h 56% 0in /  0.0mm
20:43 34.7 °F /  1.5 °C 21.2 °F /  -6.0 °C 30.2in /  1020.9hPa ENE 17.7mph /  28.5km/h 17.7mph /  28.5km/h 56% 0in /  0.0mm
20:48 34.5 °F /  1.4 °C 21.2 °F /  -6.0 °C 30.2in /  1020.9hPa East 10.1mph /  16.3km/h 17.7mph /  28.5km/h 56% 0in /  0.0mm
20:53 34.5 °F /  1.4 °C 21.2 °F /  -6.0 °C 30.2in /  1020.9hPa East 10.1mph /  16.3km/h 24.4mph /  39.3km/h 56% 0in /  0.0mm
20:58 34.5 °F /  1.4 °C 21.2 °F /  -6.0 °C 30.2in /  1020.9hPa East 10.3mph /  16.6km/h 24.4mph /  39.3km/h 56% 0in /  0.0mm
21:03 34.3 °F /  1.3 °C 21.2 °F /  -6.0 °C 30.2in /  1020.9hPa East 15.4mph /  24.8km/h 15.4mph /  24.8km/h 56% 0in /  0.0mm
21:08 34.3 °F /  1.3 °C 21.2 °F /  -6.0 °C 30.2in /  1020.9hPa ESE 9.4mph /  15.1km/h 15.4mph /  24.8km/h 56% 0in /  0.0mm
21:13 34.2 °F /  1.2 °C 21.2 °F /  -6.0 °C 30.2in /  1020.9hPa NE 9.8mph /  15.8km/h 14.5mph /  23.3km/h 56% 0in /  0.0mm
21:18 34.2 °F /  1.2 °C 21.2 °F /  -6.0 °C 30.2in /  1021.9hPa ENE 11.4mph /  18.3km/h 17.4mph /  28.0km/h 56% 0in /  0.0mm
21:23 34 °F /  1.1 °C 19.4 °F /  -7.0 °C 30.2in /  1021.9hPa ENE 8.7mph /  14.0km/h 17.4mph /  28.0km/h 56% 0in /  0.0mm
21:28 34 °F /  1.1 °C 19.4 °F /  -7.0 °C 30.2in /  1021.9hPa ENE 12.3mph /  19.8km/h 14.8mph /  23.8km/h 56% 0in /  0.0mm
21:33 33.8 °F /  1.0 °C 19.4 °F /  -7.0 °C 30.2in /  1021.9hPa ENE 14.3mph /  23.0km/h 14.8mph /  23.8km/h 56% 0in /  0.0mm
21:38 33.8 °F /  1.0 °C 19.4 °F /  -7.0 °C 30.2in /  1021.9hPa East 8.5mph /  13.7km/h 14.8mph /  23.8km/h 56% 0in /  0.0mm
21:43 33.6 °F /  0.9 °C 21.2 °F /  -6.0 °C 30.2in /  1021.9hPa ENE 12.5mph /  20.1km/h 14.8mph /  23.8km/h 57% 0in /  0.0mm
21:48 33.6 °F /  0.9 °C 21.2 °F /  -6.0 °C 30.2in /  1021.9hPa NNE 10.1mph /  16.3km/h 14.3mph /  23.0km/h 57% 0in /  0.0mm
21:53 33.4 °F /  0.8 °C 21.2 °F /  -6.0 °C 30.2in /  1021.9hPa ENE 10.7mph /  17.2km/h 14.8mph /  23.8km/h 57% 0in /  0.0mm
21:58 33.4 °F /  0.8 °C 21.2 °F /  -6.0 °C 30.2in /  1021.9hPa NE 11mph /  17.7km/h 15.2mph /  24.5km/h 58% 0in /  0.0mm
22:03 33.3 °F /  0.7 °C 21.2 °F /  -6.0 °C 30.2in /  1021.9hPa NE 9.6mph /  15.4km/h 15.2mph /  24.5km/h 58% 0in /  0.0mm
22:08 33.3 °F /  0.7 °C 21.2 °F /  -6.0 °C 30.2in /  1021.9hPa ENE 10.7mph /  17.2km/h 14.5mph /  23.3km/h 58% 0in /  0.0mm
22:13 33.1 °F /  0.6 °C 21.2 °F /  -6.0 °C 30.2in /  1021.9hPa ENE 15.7mph /  25.3km/h 15.7mph /  25.3km/h 58% 0in /  0.0mm
22:18 33.1 °F /  0.6 °C 21.2 °F /  -6.0 °C 30.2in /  1021.9hPa ENE 17.7mph /  28.5km/h 17.7mph /  28.5km/h 58% 0in /  0.0mm
22:23 33.1 °F /  0.6 °C 21.2 °F /  -6.0 °C 30.2in /  1021.9hPa ENE 10.7mph /  17.2km/h 17.7mph /  28.5km/h 58% 0in /  0.0mm
22:28 32.9 °F /  0.5 °C 21.2 °F /  -6.0 °C 30.2in /  1021.9hPa ENE 10.5mph /  16.9km/h 15.4mph /  24.8km/h 59% 0in /  0.0mm
22:33 32.9 °F /  0.5 °C 21.2 °F /  -6.0 °C 30.2in /  1021.9hPa East 10.7mph /  17.2km/h 19mph /  30.6km/h 59% 0in /  0.0mm
22:41 32.7 °F /  0.4 °C 21.2 °F /  -6.0 °C 30.2in /  1021.9hPa East 8.7mph /  14.0km/h 19mph /  30.6km/h 59% 0in /  0.0mm
22:43 32.7 °F /  0.4 °C 21.2 °F /  -6.0 °C 30.2in /  1021.9hPa ENE 10.5mph /  16.9km/h 17mph /  27.4km/h 59% 0in /  0.0mm
22:48 32.7 °F /  0.4 °C 21.2 °F /  -6.0 °C 30.2in /  1021.9hPa NE 11.2mph /  18.0km/h 17mph /  27.4km/h 59% 0in /  0.0mm
22:53 32.5 °F /  0.3 °C 21.2 °F /  -6.0 °C 30.2in /  1021.9hPa ENE 8.7mph /  14.0km/h 16.6mph /  26.7km/h 59% 0in /  0.0mm
22:58 32.5 °F /  0.3 °C 21.2 °F /  -6.0 °C 30.2in /  1021.9hPa ENE 12.3mph /  19.8km/h 16.6mph /  26.7km/h 59% 0in /  0.0mm
23:03 32.5 °F /  0.3 °C 21.2 °F /  -6.0 °C 30.2in /  1021.9hPa ENE 8.5mph /  13.7km/h 14.3mph /  23.0km/h 59% 0in /  0.0mm
23:08 32.4 °F /  0.2 °C 19.4 °F /  -7.0 °C 30.2in /  1021.9hPa East 11.4mph /  18.3km/h 14.3mph /  23.0km/h 59% 0in /  0.0mm
23:13 32.4 °F /  0.2 °C 19.4 °F /  -7.0 °C 30.2in /  1021.9hPa East 9.6mph /  15.4km/h 13mph /  20.9km/h 59% 0in /  0.0mm
23:17 32.4 °F /  0.2 °C 19.4 °F /  -7.0 °C 30.2in /  1022.9hPa ENE 10.5mph /  16.9km/h 15.7mph /  25.3km/h 59% 0in /  0.0mm
23:23 32.2 °F /  0.1 °C 19.4 °F /  -7.0 °C 30.2in /  1022.9hPa NNE 12.3mph /  19.8km/h 16.3mph /  26.2km/h 59% 0in /  0.0mm
23:28 32.2 °F /  0.1 °C 19.4 °F /  -7.0 °C 30.2in /  1022.9hPa NNE 9.6mph /  15.4km/h 16.3mph /  26.2km/h 59% 0in /  0.0mm
23:31 32.2 °F /  0.1 °C 19.4 °F /  -7.0 °C 30.2in /  1022.9hPa East 12.3mph /  19.8km/h 15.4mph /  24.8km/h 59% 0in /  0.0mm
23:36 32 °F /  0.0 °C 17.6 °F /  -8.0 °C 30.2in /  1021.9hPa ESE 10.3mph /  16.6km/h 17.4mph /  28.0km/h 59% 0in /  0.0mm
23:41 32 °F /  0.0 °C 17.6 °F /  -8.0 °C 30.2in /  1021.9hPa East 8.1mph /  13.0km/h 17.4mph /  28.0km/h 59% 0in /  0.0mm
23:46 32 °F /  0.0 °C 17.6 °F /  -8.0 °C 30.2in /  1022.9hPa ENE 9.2mph /  14.8km/h 12.5mph /  20.1km/h 59% 0in /  0.0mm
23:48 32 °F /  0.0 °C 17.6 °F /  -8.0 °C 30.2in /  1022.9hPa NE 10.3mph /  16.6km/h 12.5mph /  20.1km/h 58% 0in /  0.0mm
23:53 32 °F /  0.0 °C 17.6 °F /  -8.0 °C 30.2in /  1022.9hPa East 13mph /  20.9km/h 17.4mph /  28.0km/h 58% 0in /  0.0mm
23:58 32 °F /  0.0 °C 17.6 °F /  -8.0 °C 30.2in /  1022.9hPa ENE 8.5mph /  13.7km/h 17.4mph /  28.0km/h 58% 0in /  0.0mm
Données Historique de Météo Turbie

Mise a jour : 18/06/2018 00:15:12
Généré par Cumulus 1.9.4 (1099)